Time;durP1;ratioP1;P1;durP2;ratioP2;P2;SDS_P1;SDS_P2;PMS_P1;PMS_P2;Temp;Humidity;BMP_temperature;BMP_pressure;BME280_temperature;BME280_humidity;BME280_pressure;Samples;Min_cycle;Max_cycle;Signal;HPM_P1;HPM_P2
2022/06/14 00:00:54;;;;;;;11.57;4.37;;;;;;;12.06;71.40;102363.03;5044526;28;20031;-69
2022/06/14 00:03:41;;;;;;;12.10;4.30;;;;;;;12.07;70.61;102369.88;5041994;28;20295;-68
2022/06/14 00:06:14;;;;;;;13.73;4.47;;;;;;;11.95;71.63;102366.28;5017783;28;20020;-67
2022/06/14 00:08:40;;;;;;;12.38;4.60;;;;;;;11.78;72.24;102357.84;5044193;28;20111;-69
2022/06/14 00:11:13;;;;;;;11.20;4.40;;;;;;;11.92;71.63;102360.44;5046224;28;20052;-69
2022/06/14 00:13:39;;;;;;;12.30;4.72;;;;;;;11.91;71.95;102348.38;5026961;28;20066;-68
2022/06/14 00:16:05;;;;;;;13.45;4.97;;;;;;;11.87;71.26;102354.69;5042074;28;20147;-67
2022/06/14 00:18:30;;;;;;;11.93;4.93;;;;;;;11.88;72.03;102356.38;5026177;28;20424;-69
2022/06/14 00:20:56;;;;;;;14.15;5.32;;;;;;;11.72;72.72;102358.22;5038233;28;20116;-69
2022/06/14 00:23:22;;;;;;;15.23;5.60;;;;;;;11.82;72.52;102362.81;5038744;28;20044;-69
2022/06/14 00:25:52;;;;;;;12.80;5.47;;;;;;;11.89;72.31;102365.84;5040976;28;20113;-69
2022/06/14 00:28:18;;;;;;;15.75;6.03;;;;;;;11.79;73.01;102354.31;5036522;28;20107;-69
2022/06/14 00:30:48;;;;;;;13.18;5.18;;;;;;;11.74;73.35;102371.97;5045574;28;20504;-68
2022/06/14 00:33:14;;;;;;;13.20;5.22;;;;;;;11.82;72.21;102360.19;5034372;28;20547;-68
2022/06/14 00:35:40;;;;;;;14.45;5.93;;;;;;;11.82;72.44;102364.56;5014977;28;20033;-68
2022/06/14 00:38:06;;;;;;;14.75;6.20;;;;;;;11.80;72.86;102368.97;5035266;28;20452;-68
2022/06/14 00:40:34;;;;;;;12.73;6.03;;;;;;;11.82;72.96;102364.56;5045796;28;20392;-67
2022/06/14 00:43:05;;;;;;;13.00;6.28;;;;;;;11.65;74.01;102369.00;5040174;28;20032;-69
2022/06/14 00:45:30;;;;;;;12.80;6.13;;;;;;;11.73;73.22;102365.94;5040948;28;20035;-68
2022/06/14 00:48:12;;;;;;;17.05;6.15;;;;;;;11.78;73.45;102363.88;5045365;28;20037;-68
2022/06/14 00:50:48;;;;;;;13.45;5.93;;;;;;;11.70;73.59;102355.72;5035103;28;20031;-69
2022/06/14 00:53:14;;;;;;;15.35;6.43;;;;;;;11.75;73.83;102364.06;5040187;28;20039;-69
2022/06/14 00:55:45;;;;;;;13.43;5.60;;;;;;;11.64;73.29;102367.34;5041824;28;20399;-69
2022/06/14 00:58:26;;;;;;;14.82;5.93;;;;;;;11.66;73.86;102355.06;5045842;28;20036;-70
2022/06/14 01:00:59;;;;;;;12.48;5.70;;;;;;;11.72;74.10;102363.44;5044836;28;20037;-70
2022/06/14 01:03:29;;;;;;;12.50;5.70;;;;;;;11.73;74.47;102359.91;5037856;28;20033;-70
2022/06/14 01:06:05;;;;;;;14.57;5.60;;;;;;;11.69;73.89;102365.28;5032262;28;20100;-68
2022/06/14 01:08:31;;;;;;;12.55;5.53;;;;;;;11.69;72.94;102354.03;5036139;28;20503;-69
2022/06/14 01:10:56;;;;;;;13.88;5.43;;;;;;;11.57;74.26;102354.81;5042717;28;20021;-70
2022/06/14 01:13:23;;;;;;;11.95;5.13;;;;;;;11.64;73.94;102351.75;5042588;28;20416;-67
2022/06/14 01:15:49;;;;;;;14.25;5.00;;;;;;;11.65;74.01;102353.41;5043853;28;20071;-69
2022/06/14 01:18:16;;;;;;;14.98;5.25;;;;;;;11.62;74.50;102344.97;5042191;28;20036;-68
2022/06/14 01:20:43;;;;;;;13.27;5.05;;;;;;;11.62;73.77;102348.38;5020337;28;20447;-69
2022/06/14 01:23:13;;;;;;;14.00;5.38;;;;;;;11.50;75.04;102349.16;5042395;28;20468;-68
2022/06/14 01:25:43;;;;;;;12.02;4.93;;;;;;;11.47;75.06;102349.34;5022731;28;20060;-68
2022/06/14 01:28:10;;;;;;;13.05;5.05;;;;;;;11.54;74.34;102348.03;5031235;28;20046;-68
2022/06/14 01:30:45;;;;;;;14.95;5.00;;;;;;;11.47;75.49;102353.69;5031915;28;20116;-69
2022/06/14 01:33:16;;;;;;;12.98;5.18;;;;;;;11.45;74.72;102346.00;5045203;28;20119;-68
2022/06/14 01:35:48;;;;;;;12.75;4.90;;;;;;;11.42;74.92;102347.03;5033602;28;20060;-69
2022/06/14 01:38:15;;;;;;;11.65;4.50;;;;;;;11.30;75.92;102326.16;5041154;28;20025;-69
2022/06/14 01:40:40;;;;;;;12.52;4.68;;;;;;;11.41;75.73;102334.97;5024964;28;20060;-68
2022/06/14 01:43:45;;;;;;;13.25;4.85;;;;;;;11.45;74.91;102325.22;5033035;28;20115;-68
2022/06/14 01:46:16;;;;;;;13.48;4.50;;;;;;;11.35;75.68;102324.09;5033292;28;20426;-68
2022/06/14 01:52:16;;;;;;;12.50;4.70;;;;;;;11.36;74.80;102321.41;5042312;28;20060;-69
2022/06/14 01:54:47;;;;;;;13.35;4.63;;;;;;;11.27;75.18;102318.53;5035497;28;20083;-69
2022/06/14 01:57:24;;;;;;;13.93;4.60;;;;;;;11.29;75.74;102317.50;5042210;28;20100;-68
2022/06/14 02:00:07;;;;;;;12.80;5.10;;;;;;;11.35;75.07;102318.91;5032239;28;20482;-69
2022/06/14 02:02:48;;;;;;;13.77;4.75;;;;;;;11.34;75.66;102323.25;5039805;28;20017;-69
2022/06/14 02:05:29;;;;;;;12.13;4.85;;;;;;;11.05;76.71;102312.03;5037418;28;20028;-69
2022/06/14 02:08:06;;;;;;;12.95;5.00;;;;;;;11.16;76.47;102314.81;5044110;28;20040;-69
2022/06/14 02:10:45;;;;;;;12.90;5.50;;;;;;;11.08;76.66;102322.25;5039162;28;20048;-69
2022/06/14 02:13:18;;;;;;;15.95;5.53;;;;;;;11.14;76.85;102319.28;5028781;28;20063;-69
2022/06/14 02:15:52;;;;;;;14.48;5.78;;;;;;;11.12;76.60;102323.72;5036740;28;20047;-68
2022/06/14 02:18:37;;;;;;;14.45;5.30;;;;;;;11.24;76.36;102334.28;5041598;28;20493;-69
2022/06/14 02:21:12;;;;;;;13.35;5.43;;;;;;;11.13;77.53;102321.97;5042593;28;20100;-67
2022/06/14 02:24:01;;;;;;;11.98;5.15;;;;;;;11.20;76.33;102325.03;5028350;28;20071;-69
2022/06/14 02:26:33;;;;;;;12.32;4.97;;;;;;;11.07;76.83;102320.59;5046902;28;20706;-69
2022/06/14 02:29:14;;;;;;;16.00;5.60;;;;;;;10.96;77.43;102315.19;5041589;28;20030;-69
2022/06/14 02:31:50;;;;;;;14.80;5.40;;;;;;;10.98;76.57;102315.94;5046247;28;20073;-68
2022/06/14 02:34:27;;;;;;;13.00;5.45;;;;;;;10.90;76.67;102308.59;5036148;28;20037;-68
2022/06/14 02:37:19;;;;;;;16.05;5.32;;;;;;;10.98;77.49;102313.34;5046056;28;20063;-69
2022/06/14 02:39:57;;;;;;;15.10;5.80;;;;;;;10.87;77.93;102323.50;5021627;28;20049;-69
2022/06/14 02:42:36;;;;;;;15.00;5.80;;;;;;;10.88;77.77;102320.00;5043850;28;20025;-67
2022/06/14 02:45:02;;;;;;;14.15;5.72;;;;;;;10.78;77.17;102308.47;5043747;28;20218;-68
2022/06/14 02:47:39;;;;;;;15.48;5.60;;;;;;;10.77;77.57;102318.03;5046920;28;20029;-68
2022/06/14 02:50:07;;;;;;;14.18;5.65;;;;;;;10.73;78.36;102311.34;5042192;28;20041;-68
2022/06/14 02:52:41;;;;;;;14.18;5.50;;;;;;;10.77;77.83;102306.81;5045955;28;20028;-68
2022/06/14 02:55:53;;;;;;;11.93;5.40;;;;;;;10.87;77.87;102302.75;5017478;28;20040;-69
2022/06/14 02:58:27;;;;;;;12.00;5.63;;;;;;;10.72;78.59;102298.44;5047205;28;20032;-69
2022/06/14 03:00:58;;;;;;;12.88;5.35;;;;;;;10.68;78.07;102296.97;5042516;28;20036;-69
2022/06/14 03:03:53;;;;;;;11.45;4.82;;;;;;;10.77;77.70;102296.44;5046373;28;20116;-68
2022/06/14 03:06:58;;;;;;;11.77;4.72;;;;;;;10.78;78.15;102298.09;5043534;28;20069;-68
2022/06/14 03:09:31;;;;;;;13.27;5.55;;;;;;;10.67;78.59;102292.69;4996682;28;20509;-68
2022/06/14 03:12:06;;;;;;;11.10;5.40;;;;;;;10.58;78.70;102289.72;5004391;28;20157;-68
2022/06/14 03:14:46;;;;;;;13.52;5.57;;;;;;;10.64;78.68;102297.16;5001330;28;20125;-69
2022/06/14 03:17:11;;;;;;;11.60;5.43;;;;;;;10.60;78.63;102294.81;4994433;28;20190;-68
2022/06/14 03:19:45;;;;;;;11.38;5.00;;;;;;;10.64;78.29;102304.94;4999006;28;20046;-68
2022/06/14 03:22:34;;;;;;;11.95;5.18;;;;;;;10.59;78.48;102301.75;4989370;28;20185;-68
2022/06/14 03:25:25;;;;;;;13.10;5.47;;;;;;;10.44;79.23;102294.06;4994400;28;20084;-68
2022/06/14 03:27:57;;;;;;;11.30;5.72;;;;;;;10.46;79.05;102302.56;5001991;28;20582;-68
2022/06/14 03:30:23;;;;;;;11.55;5.28;;;;;;;10.49;79.65;102298.03;5005561;28;20136;-68
2022/06/14 03:33:07;;;;;;;11.48;5.53;;;;;;;10.57;79.11;102303.63;4985381;28;20526;-68
2022/06/14 03:35:41;;;;;;;12.80;5.72;;;;;;;10.50;79.34;102299.72;4996068;28;20529;-68
2022/06/14 03:38:12;;;;;;;10.63;5.05;;;;;;;10.54;78.90;102305.56;5002811;28;20030;-68
2022/06/14 03:40:41;;;;;;;9.90;5.25;;;;;;;10.52;78.92;102303.06;4984603;28;20414;-68
2022/06/14 03:43:07;;;;;;;13.20;5.55;;;;;;;10.51;78.12;102295.38;5016842;28;20417;-70
2022/06/14 03:45:51;;;;;;;13.60;6.10;;;;;;;10.46;79.77;102298.22;5046294;28;20029;-68
2022/06/14 03:48:17;;;;;;;12.27;6.40;;;;;;;10.50;79.03;102302.31;5044311;28;20044;-69
2022/06/14 03:50:50;;;;;;;14.07;6.45;;;;;;;10.48;79.65;102301.53;5038460;28;20041;-68
2022/06/14 03:53:42;;;;;;;11.52;6.30;;;;;;;10.50;78.98;102298.88;5043261;28;20024;-69
2022/06/14 03:56:30;;;;;;;13.23;6.90;;;;;;;10.45;79.00;102306.94;5040508;28;20025;-68
2022/06/14 03:59:24;;;;;;;13.27;6.38;;;;;;;10.55;78.96;102302.03;5044079;28;20037;-69
2022/06/14 04:02:53;;;;;;;15.77;6.75;;;;;;;10.51;78.39;102300.56;5035098;28;20036;-67
2022/06/14 04:05:29;;;;;;;12.90;6.88;;;;;;;10.33;79.14;102302.44;5038739;28;20481;-68
2022/06/14 04:08:19;;;;;;;12.70;6.70;;;;;;;10.35;78.69;102300.59;5044028;28;20485;-68
2022/06/14 04:11:08;;;;;;;12.68;6.50;;;;;;;10.36;78.58;102307.44;5043311;28;20103;-69
2022/06/14 04:13:57;;;;;;;13.52;7.43;;;;;;;10.30;79.01;102300.84;5044419;28;20036;-67
2022/06/14 04:16:26;;;;;;;12.50;6.93;;;;;;;10.29;79.08;102300.94;5034341;28;20452;-68
2022/06/14 04:19:18;;;;;;;15.27;7.10;;;;;;;10.43;78.57;102303.56;5040174;28;20028;-68
2022/06/14 04:21:56;;;;;;;12.00;7.10;;;;;;;10.32;79.78;102301.63;5044505;28;20032;-68
2022/06/14 04:24:30;;;;;;;13.80;7.13;;;;;;;10.41;79.44;102310.63;5043663;28;20115;-68
2022/06/14 04:27:22;;;;;;;12.88;6.88;;;;;;;10.44;79.78;102300.06;5023162;28;20175;-69
2022/06/14 04:30:01;;;;;;;13.00;7.30;;;;;;;10.44;79.54;102310.44;5046711;28;20052;-69
2022/06/14 04:32:32;;;;;;;11.88;6.90;;;;;;;10.41;79.92;102310.63;5021404;28;20421;-68
2022/06/14 04:35:14;;;;;;;18.70;7.60;;;;;;;10.44;79.33;102305.25;5043131;28;20503;-68
2022/06/14 04:37:45;;;;;;;12.73;7.40;;;;;;;10.39;79.57;102307.28;5044308;28;20029;-69
2022/06/14 04:40:14;;;;;;;15.52;7.32;;;;;;;10.46;80.04;102310.34;5044198;28;20025;-69
2022/06/14 04:43:06;;;;;;;;;;;;;;;10.64;77.95;102317.91;5038656;28;20385;-68
2022/06/14 04:45:41;;;;;;;13.20;7.22;;;;;;;10.52;79.18;102318.63;5041528;28;19913;-68
2022/06/14 04:48:13;;;;;;;14.05;8.35;;;;;;;10.51;80.03;102309.16;5016616;28;20030;-67
2022/06/14 04:50:44;;;;;;;13.77;7.45;;;;;;;10.52;80.30;102313.44;5032810;28;20028;-68
2022/06/14 04:53:19;;;;;;;14.52;7.47;;;;;;;10.58;79.43;102307.88;5043805;28;20021;-67
2022/06/14 04:55:56;;;;;;;13.10;7.13;;;;;;;10.63;79.44;102316.25;5032920;28;20100;-69
2022/06/14 04:59:06;;;;;;;13.02;7.75;;;;;;;10.68;78.98;102322.94;5041875;28;20029;-70
2022/06/14 05:01:37;;;;;;;12.95;7.25;;;;;;;10.71;79.57;102322.75;5027780;28;20049;-68
2022/06/14 05:04:12;;;;;;;16.70;7.63;;;;;;;10.67;79.71;102310.84;5044175;28;20033;-69
2022/06/14 05:06:48;;;;;;;13.80;7.10;;;;;;;10.73;80.06;102321.75;5043948;28;20023;-68
2022/06/14 05:09:34;;;;;;;12.20;6.95;;;;;;;10.86;79.59;102332.22;5025799;28;20460;-68
2022/06/14 05:12:14;;;;;;;12.70;7.35;;;;;;;10.92;79.37;102325.84;5039952;28;20028;-67
2022/06/14 05:14:54;;;;;;;14.95;8.48;;;;;;;10.96;79.55;102328.19;5022507;28;20553;-67
2022/06/14 05:17:26;;;;;;;14.68;7.95;;;;;;;11.01;79.19;102320.09;5040227;28;20048;-68
2022/06/14 05:20:12;;;;;;;16.42;7.47;;;;;;;11.10;79.42;102335.97;5042765;28;20461;-69
2022/06/14 05:22:54;;;;;;;14.32;7.22;;;;;;;11.15;78.38;102339.13;5043473;28;20024;-68
2022/06/14 05:25:20;;;;;;;15.07;7.55;;;;;;;11.14;78.10;102332.28;5041719;28;20437;-69
2022/06/14 05:28:05;;;;;;;14.60;7.18;;;;;;;11.26;79.17;102335.06;5040673;28;20039;-68
2022/06/14 05:30:40;;;;;;;12.18;6.85;;;;;;;11.29;77.77;102340.88;5023736;28;20377;-68
2022/06/14 05:33:24;;;;;;;10.02;6.35;;;;;;;11.38;77.50;102344.69;5042318;28;20477;-70
2022/06/14 05:36:18;;;;;;;13.35;7.18;;;;;;;11.42;78.43;102346.19;5030583;28;20044;-69
2022/06/14 05:38:59;;;;;;;13.35;7.22;;;;;;;11.43;79.25;102342.66;5014518;28;20646;-69
2022/06/14 05:41:38;;;;;;;12.98;7.20;;;;;;;11.53;78.59;102348.16;5038957;28;20059;-69
2022/06/14 05:44:07;;;;;;;;;;;;;;;11.68;77.20;102345.41;5039889;28;20036;-68
2022/06/14 05:46:32;;;;;;;;;;;;;;;11.75;77.62;102342.44;5042174;28;19916;-70
2022/06/14 05:49:03;;;;;;;12.63;7.38;;;;;;;11.77;78.12;102341.41;5028173;28;19955;-68
2022/06/14 05:51:43;;;;;;;14.93;7.97;;;;;;;11.83;77.03;102340.22;5047435;28;20064;-69
2022/06/14 05:54:18;;;;;;;13.35;7.65;;;;;;;11.80;78.76;102346.41;5047387;28;20021;-68
2022/06/14 05:57:10;;;;;;;13.05;7.10;;;;;;;11.95;77.58;102349.84;5044656;28;20024;-68
2022/06/14 05:59:50;;;;;;;13.93;7.40;;;;;;;12.00;78.31;102347.81;5046336;28;20037;-69
2022/06/14 06:02:30;;;;;;;15.60;7.93;;;;;;;12.10;77.98;102345.44;5034960;28;20351;-69
2022/06/14 06:05:08;;;;;;;13.43;6.97;;;;;;;12.18;76.93;102353.59;5048959;28;20032;-69
2022/06/14 06:07:38;;;;;;;;;;;;;;;12.34;76.81;102345.66;5046632;28;20616;-70
2022/06/14 06:10:29;;;;;;;11.77;7.05;;;;;;;12.37;76.79;102345.44;5042087;28;20317;-70
2022/06/14 06:13:08;;;;;;;10.38;5.90;;;;;;;12.38;74.33;102339.28;5048407;28;20037;-73
2022/06/14 06:15:43;;;;;;;12.32;5.75;;;;;;;12.44;73.21;102342.34;5044884;28;20029;-69
2022/06/14 06:18:17;;;;;;;10.38;4.97;;;;;;;12.58;72.57;102343.22;5043461;28;20033;-70
2022/06/14 06:20:45;;;;;;;11.05;4.40;;;;;;;12.63;71.39;102343.75;5035503;28;20044;-69
2022/06/14 06:23:11;;;;;;;;;;;;;;;12.76;73.36;102345.44;5042951;28;20106;-69
2022/06/14 06:25:41;;;;;;;11.40;5.60;;;;;;;12.71;71.63;102349.28;5028046;28;19917;-69
2022/06/14 06:28:16;;;;;;;12.18;5.50;;;;;;;12.82;72.33;102348.56;5038042;28;20627;-70
2022/06/14 06:30:52;;;;;;;10.00;5.03;;;;;;;12.98;72.64;102346.59;5046362;28;20029;-71
2022/06/14 06:33:20;;;;;;;9.80;4.60;;;;;;;12.99;70.51;102348.25;5044861;28;20039;-69
2022/06/14 06:36:07;;;;;;;8.57;4.20;;;;;;;13.04;70.58;102346.19;5038816;28;20029;-69
2022/06/14 06:38:54;;;;;;;10.65;4.40;;;;;;;13.13;70.65;102344.72;5028834;28;20497;-68
2022/06/14 06:44:22;;;;;;;9.43;3.53;;;;;;;13.22;67.33;102352.78;5039991;28;20071;-69
2022/06/14 06:46:58;;;;;;;8.48;3.20;;;;;;;13.26;67.71;102335.16;5045575;28;20024;-68
2022/06/14 06:49:30;;;;;;;9.57;3.60;;;;;;;13.38;67.85;102349.13;5042456;28;20043;-68
2022/06/14 06:52:00;;;;;;;9.35;3.65;;;;;;;13.50;67.69;102358.69;5046186;28;20108;-68
2022/06/14 06:54:48;;;;;;;9.07;3.25;;;;;;;13.54;67.78;102352.34;5036086;28;20350;-69
2022/06/14 06:57:19;;;;;;;9.98;4.13;;;;;;;13.59;65.92;102352.84;5043211;28;20055;-69
2022/06/14 06:59:48;;;;;;;10.93;4.28;;;;;;;13.69;65.89;102353.84;5045257;28;20037;-69
2022/06/14 07:02:46;;;;;;;12.32;4.20;;;;;;;13.76;66.85;102360.31;5043751;28;20021;-68
2022/06/14 07:05:16;;;;;;;10.77;4.13;;;;;;;13.86;65.17;102359.66;4983322;28;20073;-69
2022/06/14 07:07:44;;;;;;;8.75;3.92;;;;;;;13.95;65.03;102351.19;4983770;28;20065;-69
2022/06/14 07:10:18;;;;;;;9.48;3.90;;;;;;;14.13;65.15;102352.47;4984572;28;20042;-69
2022/06/14 07:13:13;;;;;;;10.38;3.80;;;;;;;14.18;65.74;102352.13;4983108;28;20046;-69
2022/06/14 07:15:47;;;;;;;7.35;3.58;;;;;;;14.20;64.99;102348.47;4978561;28;20443;-69
2022/06/14 07:18:21;;;;;;;9.02;3.00;;;;;;;14.28;62.56;102356.59;4984701;28;20557;-69
2022/06/14 07:21:15;;;;;;;7.28;2.95;;;;;;;14.40;64.25;102348.81;4981522;28;20044;-69
2022/06/14 07:23:57;;;;;;;9.32;3.70;;;;;;;14.27;62.67;102354.88;4984001;28;20645;-69
2022/06/14 07:26:28;;;;;;;9.23;4.00;;;;;;;14.51;63.09;102351.47;4982306;28;20558;-68
2022/06/14 07:29:03;;;;;;;8.98;4.05;;;;;;;14.45;63.60;102357.09;4983639;28;20042;-68
2022/06/14 07:31:59;;;;;;;10.35;4.07;;;;;;;14.59;63.25;102349.97;4982476;28;20105;-68
2022/06/14 07:34:26;;;;;;;11.15;3.80;;;;;;;14.69;62.13;102352.72;4981879;28;20042;-67
2022/06/14 07:37:01;;;;;;;9.77;4.00;;;;;;;14.77;62.02;102352.13;4981890;28;20040;-68
2022/06/14 07:39:39;;;;;;;7.57;4.00;;;;;;;14.80;62.25;102349.31;4981971;28;20038;-68
2022/06/14 07:42:43;;;;;;;9.48;4.07;;;;;;;14.88;63.17;102350.38;5011802;28;20045;-68
2022/06/14 07:45:21;;;;;;;10.85;3.78;;;;;;;14.92;61.25;102342.34;5025791;28;20021;-68
2022/06/14 07:47:58;;;;;;;8.27;3.28;;;;;;;15.01;60.07;102350.28;5044943;28;20121;-69
2022/06/14 07:50:33;;;;;;;8.97;3.20;;;;;;;15.13;59.69;102351.13;5040574;28;20074;-68
2022/06/14 07:53:23;;;;;;;9.13;3.17;;;;;;;15.18;60.31;102351.59;5042629;28;20025;-68
2022/06/14 07:55:54;;;;;;;7.40;2.72;;;;;;;15.30;59.87;102355.88;5044164;28;20396;-68
2022/06/14 07:58:36;;;;;;;10.02;3.00;;;;;;;15.38;59.53;102352.69;5046798;28;20033;-68
2022/06/14 08:01:09;;;;;;;8.40;2.40;;;;;;;15.37;58.42;102357.09;5042594;28;20039;-68
2022/06/14 08:03:35;;;;;;;7.82;2.50;;;;;;;15.43;57.28;102350.56;5039469;28;20021;-69
2022/06/14 08:06:06;;;;;;;6.47;2.22;;;;;;;15.48;57.82;102352.78;5028467;28;20488;-68
2022/06/14 08:08:37;;;;;;;7.00;2.40;;;;;;;15.57;58.15;102344.25;5036771;28;20177;-68
2022/06/14 08:11:12;;;;;;;6.63;1.95;;;;;;;15.80;58.11;102348.50;5038112;28;20029;-67
2022/06/14 08:13:44;;;;;;;6.97;2.13;;;;;;;15.78;56.26;102347.00;5038628;28;20393;-67
2022/06/14 08:16:10;;;;;;;6.30;1.98;;;;;;;15.86;55.73;102348.03;5046780;28;20020;-68
2022/06/14 08:18:43;;;;;;;7.20;2.17;;;;;;;16.24;56.13;102351.97;5044874;28;20495;-68
2022/06/14 08:21:16;;;;;;;8.75;2.10;;;;;;;16.16;54.93;102343.88;5044772;28;20043;-70
2022/06/14 08:23:49;;;;;;;7.25;2.10;;;;;;;16.18;55.32;102339.38;5043049;28;20033;-68
2022/06/14 08:26:36;;;;;;;6.75;1.85;;;;;;;16.36;56.53;102345.72;5045859;28;20029;-69
2022/06/14 08:29:13;;;;;;;5.68;2.10;;;;;;;16.38;55.61;102342.97;5044670;28;20032;-69
2022/06/14 08:31:54;;;;;;;9.55;2.20;;;;;;;16.56;54.26;102335.38;5042980;28;20048;-68
2022/06/14 08:34:28;;;;;;;7.53;2.00;;;;;;;16.58;55.17;102338.72;5046244;28;20067;-68
2022/06/14 08:37:03;;;;;;;7.00;1.90;;;;;;;16.49;53.47;102334.25;5039363;28;20054;-68
2022/06/14 08:39:34;;;;;;;5.18;1.77;;;;;;;16.82;54.14;102331.47;5043984;28;20037;-69
2022/06/14 08:42:31;;;;;;;6.38;1.77;;;;;;;16.73;54.05;102338.28;5040762;28;20154;-69
2022/06/14 08:45:05;;;;;;;6.50;1.90;;;;;;;16.53;52.01;102333.03;5034144;28;20033;-69
2022/06/14 08:47:40;;;;;;;5.72;2.00;;;;;;;16.65;53.79;102335.47;5034330;28;20035;-68
2022/06/14 08:50:43;;;;;;;6.07;1.77;;;;;;;16.64;53.23;102332.97;5041602;28;20071;-69
2022/06/14 08:53:30;;;;;;;6.20;2.10;;;;;;;16.83;55.49;102333.13;5043131;28;20422;-68
2022/06/14 08:56:03;;;;;;;8.02;1.92;;;;;;;16.82;53.34;102325.41;5034286;28;20525;-69
2022/06/14 08:58:42;;;;;;;8.18;2.00;;;;;;;16.90;53.26;102333.44;5042779;28;20029;-69
2022/06/14 09:01:14;;;;;;;5.32;1.92;;;;;;;17.08;53.61;102323.16;5044458;28;20024;-69
2022/06/14 09:03:45;;;;;;;8.27;2.35;;;;;;;17.40;53.33;102331.72;5043484;28;20056;-69
2022/06/14 09:06:49;;;;;;;7.18;2.17;;;;;;;17.43;52.51;102326.22;5032039;28;20127;-69
2022/06/14 09:09:35;;;;;;;6.43;1.90;;;;;;;17.66;51.72;102331.22;5044058;28;20037;-69
2022/06/14 09:12:23;;;;;;;6.47;1.95;;;;;;;17.66;51.21;102331.22;5044140;28;20032;-68
2022/06/14 09:14:51;;;;;;;4.70;1.90;;;;;;;17.66;52.57;102328.59;5041063;28;20040;-68
2022/06/14 09:17:38;;;;;;;6.63;2.03;;;;;;;17.85;52.17;102331.31;5041365;28;20075;-69
2022/06/14 09:20:37;;;;;;;7.30;2.15;;;;;;;17.66;50.88;102320.72;5042503;28;20484;-69
2022/06/14 09:23:23;;;;;;;7.60;2.00;;;;;;;17.84;51.21;102319.16;5033197;28;20032;-69
2022/06/14 09:26:07;;;;;;;8.07;2.10;;;;;;;17.95;51.66;102326.91;5026228;28;20116;-68
2022/06/14 09:29:14;;;;;;;6.25;2.28;;;;;;;17.91;50.09;102320.28;5047680;28;20033;-68
2022/06/14 09:32:14;;;;;;;7.72;2.08;;;;;;;18.10;50.16;102313.38;4948222;28;20133;-69
2022/06/14 09:35:03;;;;;;;5.20;1.90;;;;;;;18.19;49.75;102318.63;4941243;28;20058;-69
2022/06/14 09:37:51;;;;;;;5.82;1.90;;;;;;;18.35;49.29;102318.06;4953084;28;20085;-69
2022/06/14 09:40:43;;;;;;;4.40;1.77;;;;;;;18.37;50.00;102321.38;4954834;28;20159;-69
2022/06/14 09:43:41;;;;;;;5.30;1.90;;;;;;;18.61;50.65;102312.22;4944717;28;20049;-68
2022/06/14 09:46:33;;;;;;;8.30;2.30;;;;;;;18.78;50.03;102317.59;4938312;28;20050;-68
2022/06/14 09:49:19;;;;;;;6.20;2.17;;;;;;;18.62;48.12;102316.50;4951465;28;20627;-68
2022/06/14 09:52:10;;;;;;;6.55;2.03;;;;;;;18.79;49.55;102310.53;4959995;28;20491;-68
2022/06/14 09:55:00;;;;;;;5.03;1.80;;;;;;;18.72;45.70;102309.47;4948390;28;20027;-68
2022/06/14 09:57:33;;;;;;;5.07;1.77;;;;;;;18.68;48.49;102308.06;4947913;28;20035;-68
2022/06/14 10:00:07;;;;;;;3.80;1.60;;;;;;;18.71;46.90;102302.56;4957930;28;20043;-68
2022/06/14 10:02:54;;;;;;;7.50;2.53;;;;;;;18.74;47.38;102299.63;4949315;28;20051;-68
2022/06/14 10:05:40;;;;;;;6.63;2.22;;;;;;;18.79;48.28;102295.59;4956750;28;20053;-69
2022/06/14 10:08:31;;;;;;;5.55;2.10;;;;;;;18.92;48.58;102297.06;4986637;28;20052;-69
2022/06/14 10:11:18;;;;;;;7.35;2.67;;;;;;;18.85;46.45;102288.94;5019704;28;20396;-68
2022/06/14 10:14:08;;;;;;;9.25;2.92;;;;;;;18.96;46.58;102286.13;5047343;28;20101;-68
2022/06/14 10:16:46;;;;;;;9.13;2.78;;;;;;;19.15;47.42;102289.66;5048766;28;20025;-69
2022/06/14 10:19:20;;;;;;;7.30;2.23;;;;;;;18.92;45.94;102284.75;5044995;28;20532;-68
2022/06/14 10:22:00;;;;;;;7.15;2.65;;;;;;;19.62;45.71;102282.50;5040563;28;20120;-69
2022/06/14 10:24:44;;;;;;;6.10;2.28;;;;;;;19.73;46.01;102278.84;5045949;28;20037;-70
2022/06/14 10:30:41;;;;;;;8.50;2.55;;;;;;;19.52;46.91;102282.53;5045843;28;20082;-69
2022/06/14 10:33:27;;;;;;;6.78;2.30;;;;;;;19.72;47.45;102283.25;5046625;28;20504;-68
2022/06/14 10:36:29;;;;;;;5.65;2.50;;;;;;;19.72;45.48;102282.41;5039603;28;20041;-68
2022/06/14 10:39:28;;;;;;;4.50;1.98;;;;;;;19.91;45.39;102279.66;5047184;28;20052;-68
2022/06/14 10:42:06;;;;;;;6.60;2.40;;;;;;;19.58;43.40;102276.69;5024960;28;20562;-69
2022/06/14 10:44:53;;;;;;;5.85;2.15;;;;;;;19.94;46.34;102276.72;5041835;28;20472;-69
2022/06/14 10:47:51;;;;;;;7.28;2.50;;;;;;;19.79;45.84;102278.22;5048484;28;20033;-69
2022/06/14 10:50:31;;;;;;;6.38;2.08;;;;;;;20.06;45.14;102264.94;5045942;28;20079;-69
2022/06/14 10:53:04;;;;;;;7.40;2.38;;;;;;;20.00;43.31;102264.75;5047668;28;20075;-69
2022/06/14 10:55:53;;;;;;;6.78;2.42;;;;;;;20.10;43.16;102261.03;5028677;28;20136;-69
2022/06/14 10:58:31;;;;;;;6.43;2.40;;;;;;;19.86;42.52;102252.94;5026034;28;20466;-69
2022/06/14 11:01:24;;;;;;;6.10;2.05;;;;;;;19.82;44.34;102251.59;5047499;28;20154;-68
2022/06/14 11:04:02;;;;;;;8.55;2.20;;;;;;;20.08;42.64;102254.28;5027892;28;20024;-69
2022/06/14 11:06:45;;;;;;;6.50;2.30;;;;;;;20.30;42.15;102243.25;5047329;28;20061;-69
2022/06/14 11:09:36;;;;;;;5.13;2.17;;;;;;;20.25;44.65;102239.44;5040065;28;20071;-68
2022/06/14 11:12:12;;;;;;;5.63;2.13;;;;;;;20.15;42.24;102242.97;5033796;28;20116;-68
2022/06/14 11:14:43;;;;;;;6.82;2.00;;;;;;;20.12;43.47;102232.72;5046346;28;20040;-68
2022/06/14 11:17:36;;;;;;;5.90;2.10;;;;;;;20.33;44.72;102247.38;5045345;28;20106;-68
2022/06/14 11:20:26;;;;;;;6.72;2.10;;;;;;;20.45;45.64;102238.22;5043355;28;20084;-68
2022/06/14 11:23:07;;;;;;;6.40;1.80;;;;;;;20.43;44.57;102241.03;5043927;28;20116;-68
2022/06/14 11:25:58;;;;;;;4.88;2.30;;;;;;;20.44;43.36;102236.59;5035787;28;20033;-69
2022/06/14 11:28:36;;;;;;;5.68;1.83;;;;;;;20.41;42.88;102226.34;5044114;28;20033;-69
2022/06/14 11:31:43;;;;;;;7.70;1.92;;;;;;;20.57;43.16;102220.38;5042676;28;20052;-69
2022/06/14 11:34:44;;;;;;;6.30;2.00;;;;;;;20.73;43.63;102214.34;5027220;28;20071;-67
2022/06/14 11:37:26;;;;;;;5.70;2.25;;;;;;;20.57;43.54;102215.91;5002238;28;20057;-68
2022/06/14 11:39:59;;;;;;;6.75;2.30;;;;;;;20.59;44.37;102213.97;5044453;28;20032;-69
2022/06/14 11:42:43;;;;;;;8.15;2.50;;;;;;;20.41;43.23;102211.38;5043587;28;20668;-69
2022/06/14 11:45:14;;;;;;;6.65;2.10;;;;;;;20.19;41.40;102211.06;5042426;28;20028;-68
2022/06/14 11:48:05;;;;;;;5.63;2.10;;;;;;;20.51;43.88;102213.91;5045217;28;20354;-68
2022/06/14 11:50:49;;;;;;;7.05;2.42;;;;;;;20.39;43.58;102209.88;5040423;28;20052;-69
2022/06/14 11:53:42;;;;;;;3.97;2.00;;;;;;;20.80;42.97;102210.09;5040106;28;20025;-70
2022/06/14 11:56:46;;;;;;;6.47;2.00;;;;;;;20.78;43.73;102207.63;5045393;28;20468;-68
2022/06/14 11:59:54;;;;;;;6.25;2.00;;;;;;;20.77;43.44;102199.88;5046687;28;20035;-70
2022/06/14 12:02:36;;;;;;;9.65;2.25;;;;;;;21.02;43.29;102198.97;5044556;28;20550;-69
2022/06/14 12:05:16;;;;;;;4.90;1.77;;;;;;;21.34;43.34;102200.09;5046510;28;20025;-69
2022/06/14 12:08:06;;;;;;;6.63;2.08;;;;;;;21.12;43.01;102202.31;5046925;28;20035;-68
2022/06/14 12:10:46;;;;;;;5.43;1.80;;;;;;;21.14;42.81;102202.97;5043463;28;20021;-69
2022/06/14 12:13:41;;;;;;;6.32;2.40;;;;;;;21.21;43.14;102193.41;5045831;28;20024;-69
2022/06/14 12:16:15;;;;;;;5.50;2.10;;;;;;;21.02;40.12;102193.69;5045744;28;20017;-69
2022/06/14 12:18:47;;;;;;;6.53;2.03;;;;;;;21.06;39.84;102197.66;5045495;28;20033;-68
2022/06/14 12:21:17;;;;;;;5.95;2.33;;;;;;;20.94;39.68;102189.22;5042478;28;20024;-69
2022/06/14 12:23:48;;;;;;;6.22;1.98;;;;;;;20.79;40.34;102192.63;5019139;28;20103;-69
2022/06/14 12:26:37;;;;;;;7.15;2.10;;;;;;;20.56;39.32;102195.81;5044592;28;20021;-70